Kensington, Minnesota
Current Conditions -  °F | °C
As of 10:53 PM on Tuesday 25 Nov 2014 (Local Time) from KAXN Reporting Station
Overcast Overcast  
Wind Chill: 10°   Ceiling: 3500
Heat Index: 21°   Visibility: 10mi
Dew Point: 13°   Wind: 10mph
Humidity: 71%   Direction: 80°E
Pressure: 29.95"   Gusts: NA
Location:  45.78°N, 95.7°W
Report Text: KAXN 260453Z AUTO 08009KT 10SM OVC035 M06/M11 A2995 RMK AO2 SLP169 T10611106
Loading
Personal Weather Stations






























Interactive Weather Map New forecast layout! Learn more

10-Day Weather Forecast

Advertisements
Track Severe Weather on mobile